East Kane, Pennsylvania
Current Conditions -  °F | °C
As of 1:53 PM on Sunday 21 Dec 2014 (Local Time) from KBFD Reporting Station
Overcast Overcast  
Wind Chill: 26°   Ceiling: 1100
Heat Index: 26°   Visibility: 8mi
Dew Point: 20°   Wind: 3mph
Humidity: 78%   Direction: 330°NNW
Pressure: 30.21"   Gusts: NA
Location:  41.6807°N, 78.6908°W
Report Text: KBFD 211853Z AUTO 33003KT 8SM OVC011 M03/M07 A3021 RMK AO2 SLP255 T10331067
Loading
Personal Weather Stations






























Interactive Weather Map New forecast layout! Learn more

10-Day Weather Forecast

Advertisements
Track Severe Weather on mobile